createdAt,value
2023-02-19T00:01:37.084Z,60.30
2023-02-19T00:04:11.282Z,60.10
2023-02-19T00:06:38.086Z,60.30
2023-02-19T00:09:05.259Z,60.60
2023-02-19T00:11:34.521Z,60.60
2023-02-19T00:14:02.354Z,60.70
2023-02-19T00:16:34.612Z,61.50
2023-02-19T00:19:03.606Z,61.00
2023-02-19T00:21:31.247Z,60.80
2023-02-19T00:24:08.355Z,61.10
2023-02-19T00:26:35.645Z,61.00
2023-02-19T00:29:02.702Z,61.00
2023-02-19T00:31:34.934Z,61.00
2023-02-19T00:34:04.447Z,61.30
2023-02-19T00:36:32.516Z,61.40
2023-02-19T00:38:59.363Z,61.20
2023-02-19T00:41:27.631Z,61.30
2023-02-19T00:43:59.309Z,61.10
2023-02-19T00:46:27.684Z,61.30
2023-02-19T00:48:54.823Z,61.40
2023-02-19T00:51:24.414Z,61.50
2023-02-19T00:53:51.396Z,61.60
2023-02-19T00:56:19.299Z,61.30
2023-02-19T00:58:46.684Z,61.60
2023-02-19T01:01:14.173Z,62.00
2023-02-19T01:03:42.321Z,61.50
2023-02-19T01:06:11.169Z,61.80
2023-02-19T01:08:38.394Z,61.40
2023-02-19T01:11:07.015Z,62.30
2023-02-19T01:13:34.368Z,61.60
2023-02-19T01:16:11.354Z,61.60
2023-02-19T01:18:38.618Z,61.40
2023-02-19T01:21:13.953Z,61.40
2023-02-19T01:23:41.021Z,61.50
2023-02-19T01:26:11.513Z,61.60
2023-02-19T01:28:38.822Z,61.40
2023-02-19T01:31:07.847Z,61.40
2023-02-19T01:33:35.441Z,61.40
2023-02-19T01:36:06.246Z,61.40
2023-02-19T01:38:33.577Z,61.50
2023-02-19T01:41:03.548Z,61.50
2023-02-19T01:43:33.974Z,61.00
2023-02-19T01:46:01.346Z,61.10
2023-02-19T01:48:34.837Z,61.30
2023-02-19T01:51:09.345Z,61.40
2023-02-19T01:53:41.669Z,61.40
2023-02-19T01:56:11.122Z,61.30
2023-02-19T01:58:38.885Z,61.70
2023-02-19T02:01:08.752Z,61.40
2023-02-19T02:03:40.720Z,61.30
2023-02-19T02:06:38.413Z,61.40
2023-02-19T02:09:24.158Z,61.30
2023-02-19T02:11:53.291Z,61.40
2023-02-19T02:14:24.545Z,61.40
2023-02-19T02:17:03.310Z,61.40
2023-02-19T02:19:34.478Z,61.20
2023-02-19T02:22:12.497Z,61.20
2023-02-19T02:25:13.803Z,61.30
2023-02-19T02:27:52.687Z,61.50
2023-02-19T02:30:48.994Z,61.30
2023-02-19T02:33:20.870Z,61.20
2023-02-19T02:36:08.897Z,61.00
2023-02-19T02:38:38.923Z,61.00
2023-02-19T02:41:07.033Z,61.30
2023-02-19T02:43:33.857Z,61.00
2023-02-19T02:46:00.961Z,61.00
2023-02-19T02:48:40.227Z,61.20
2023-02-19T02:51:21.820Z,61.20
2023-02-19T02:54:28.816Z,61.20
2023-02-19T02:56:56.981Z,61.20
2023-02-19T02:59:27.034Z,61.40
2023-02-19T03:02:11.180Z,61.40
2023-02-19T03:05:09.696Z,61.40
2023-02-19T03:07:48.045Z,61.50
2023-02-19T03:10:19.598Z,61.60
2023-02-19T03:13:07.133Z,61.60
2023-02-19T03:15:58.287Z,61.60
2023-02-19T03:18:47.695Z,61.60
2023-02-19T03:21:18.707Z,61.60
2023-02-19T03:24:05.634Z,61.60
2023-02-19T03:26:34.332Z,61.60
2023-02-19T03:29:21.828Z,61.60
2023-02-19T03:31:52.565Z,61.60
2023-02-19T03:34:26.588Z,61.60
2023-02-19T03:37:00.864Z,61.50
2023-02-19T03:39:30.710Z,61.60
2023-02-19T03:42:11.430Z,61.50
2023-02-19T03:44:42.471Z,61.50
2023-02-19T03:47:29.685Z,61.40
2023-02-19T03:50:07.090Z,61.30
2023-02-19T03:52:45.052Z,61.40
2023-02-19T03:55:38.312Z,61.30
2023-02-19T03:58:16.978Z,62.00
2023-02-19T04:00:46.478Z,60.80
2023-02-19T04:03:13.213Z,60.90
2023-02-19T04:05:47.151Z,61.20
2023-02-19T04:08:17.916Z,61.00
2023-02-19T04:10:48.002Z,61.20
2023-02-19T04:13:54.981Z,61.00
2023-02-19T04:16:26.829Z,61.00
2023-02-19T04:18:57.413Z,61.30
2023-02-19T04:21:24.973Z,61.30
2023-02-19T04:23:52.030Z,61.30
2023-02-19T04:26:21.844Z,61.00
2023-02-19T04:28:48.652Z,61.10
2023-02-19T04:31:15.630Z,61.40
2023-02-19T04:33:42.498Z,61.30
2023-02-19T04:36:11.754Z,61.20
2023-02-19T04:38:38.637Z,61.20
2023-02-19T04:41:05.669Z,61.20
2023-02-19T04:43:32.492Z,61.40
2023-02-19T04:46:02.832Z,61.00
2023-02-19T04:48:30.023Z,61.20
2023-02-19T04:50:57.031Z,61.30
2023-02-19T04:53:23.843Z,61.10
2023-02-19T04:55:53.388Z,61.70
2023-02-19T04:58:21.342Z,61.10
2023-02-19T05:00:52.392Z,61.40
2023-02-19T05:03:19.299Z,61.30
2023-02-19T05:05:46.162Z,61.60
2023-02-19T05:08:13.123Z,61.60
2023-02-19T05:10:40.870Z,61.60
2023-02-19T05:13:07.703Z,61.70
2023-02-19T05:15:34.517Z,61.60
2023-02-19T05:18:02.752Z,61.50
2023-02-19T05:20:29.589Z,61.60
2023-02-19T05:22:56.423Z,61.40
2023-02-19T05:25:23.179Z,61.60
2023-02-19T05:27:50.094Z,61.60
2023-02-19T05:30:16.943Z,61.60
2023-02-19T05:32:43.816Z,61.40
2023-02-19T05:35:11.972Z,61.60
2023-02-19T05:37:38.784Z,61.40
2023-02-19T05:40:06.766Z,61.60
2023-02-19T05:42:33.629Z,61.60
2023-02-19T05:45:00.448Z,61.80
2023-02-19T05:47:27.473Z,61.60
2023-02-19T05:49:54.324Z,61.60
2023-02-19T05:52:21.131Z,61.50
2023-02-19T05:54:48.199Z,61.50
2023-02-19T05:57:15.078Z,61.70
2023-02-19T05:59:41.903Z,61.50
2023-02-19T06:02:10.031Z,61.70
2023-02-19T06:04:36.972Z,61.80
2023-02-19T06:07:04.871Z,61.80
2023-02-19T06:09:32.457Z,61.90
2023-02-19T06:12:00.619Z,61.60
2023-02-19T06:14:27.468Z,61.70
2023-02-19T06:16:54.433Z,61.70
2023-02-19T06:19:21.256Z,61.70
2023-02-19T06:21:51.388Z,61.80
2023-02-19T06:24:19.627Z,61.80
2023-02-19T06:26:46.668Z,61.80
2023-02-19T06:29:13.686Z,61.90
2023-02-19T06:31:40.813Z,62.00
2023-02-19T06:34:07.646Z,62.10
2023-02-19T06:36:34.729Z,62.50
2023-02-19T06:39:02.874Z,62.30
2023-02-19T06:41:29.817Z,62.30
2023-02-19T06:43:59.398Z,62.40
2023-02-19T06:46:26.345Z,62.40
2023-02-19T06:48:54.655Z,62.30
2023-02-19T06:51:27.100Z,62.30
2023-02-19T06:53:53.963Z,62.30
2023-02-19T06:56:36.438Z,62.30
2023-02-19T06:59:06.258Z,62.40
2023-02-19T07:01:34.674Z,62.30
2023-02-19T07:04:02.118Z,62.50
2023-02-19T07:06:29.781Z,62.70
2023-02-19T07:08:58.539Z,62.80
2023-02-19T07:11:26.244Z,63.00
2023-02-19T07:14:00.286Z,63.00
2023-02-19T07:16:27.559Z,62.80
2023-02-19T07:18:58.070Z,62.90
2023-02-19T07:21:26.105Z,63.00
2023-02-19T07:23:53.449Z,63.10
2023-02-19T07:26:21.173Z,63.20
2023-02-19T07:28:50.080Z,63.20
2023-02-19T07:31:19.660Z,63.10
2023-02-19T07:33:47.661Z,63.00
2023-02-19T07:36:17.008Z,63.00
2023-02-19T07:38:44.095Z,63.20
2023-02-19T07:41:11.726Z,63.20
2023-02-19T07:43:39.699Z,63.00
2023-02-19T07:46:12.316Z,63.20
2023-02-19T07:48:42.615Z,63.10
2023-02-19T07:51:14.460Z,63.20
2023-02-19T07:53:41.401Z,63.10
2023-02-19T07:56:10.683Z,63.20
2023-02-19T07:58:37.563Z,63.20
2023-02-19T08:01:08.460Z,63.50
2023-02-19T08:03:36.468Z,62.60
2023-02-19T08:06:04.114Z,63.00
2023-02-19T08:08:31.043Z,63.00
2023-02-19T08:11:21.356Z,62.60
2023-02-19T08:13:50.190Z,62.40
2023-02-19T08:16:29.570Z,62.30
2023-02-19T08:19:00.325Z,61.00
2023-02-19T08:21:27.134Z,61.50
2023-02-19T08:23:54.015Z,61.10
2023-02-19T08:26:20.972Z,60.80
2023-02-19T08:28:48.832Z,61.20
2023-02-19T08:31:16.486Z,61.10
2023-02-19T08:33:43.391Z,60.80
2023-02-19T08:36:11.647Z,61.10
2023-02-19T08:38:38.826Z,60.90
2023-02-19T08:41:11.074Z,60.90
2023-02-19T08:43:38.630Z,60.50
2023-02-19T08:46:08.097Z,60.60
2023-02-19T08:48:36.388Z,60.80
2023-02-19T08:51:08.306Z,60.60
2023-02-19T08:53:36.891Z,60.40
2023-02-19T08:56:12.454Z,60.40
2023-02-19T08:58:40.111Z,60.30
2023-02-19T09:01:11.920Z,60.20
2023-02-19T09:03:38.976Z,60.10
2023-02-19T09:06:06.113Z,60.10
2023-02-19T09:08:33.093Z,61.40
2023-02-19T09:11:04.881Z,62.00
2023-02-19T09:13:31.773Z,62.00
2023-02-19T09:15:59.216Z,61.80
2023-02-19T09:18:29.261Z,61.30
2023-02-19T09:21:01.698Z,61.00
2023-02-19T09:23:28.990Z,60.80
2023-02-19T09:26:00.156Z,60.80
2023-02-19T09:28:28.103Z,60.80
2023-02-19T09:30:55.194Z,60.70
2023-02-19T09:33:23.484Z,60.60
2023-02-19T09:35:50.321Z,60.60
2023-02-19T09:38:17.150Z,60.60
2023-02-19T09:40:44.243Z,60.70
2023-02-19T09:43:18.047Z,60.70
2023-02-19T09:45:45.186Z,60.50
2023-02-19T09:48:12.735Z,60.50
2023-02-19T09:50:43.862Z,60.50
2023-02-19T09:53:21.119Z,60.40
2023-02-19T09:55:48.090Z,60.50
2023-02-19T09:58:30.079Z,60.40
2023-02-19T10:00:59.632Z,60.30
2023-02-19T10:03:42.143Z,60.30
2023-02-19T10:06:25.525Z,60.10
2023-02-19T10:08:56.771Z,60.30
2023-02-19T10:11:26.874Z,60.30
2023-02-19T10:14:09.629Z,60.40
2023-02-19T10:16:41.361Z,60.20
2023-02-19T10:19:13.168Z,60.20
2023-02-19T10:21:41.365Z,60.20
2023-02-19T10:24:13.843Z,60.10
2023-02-19T10:26:40.766Z,60.10
2023-02-19T10:29:07.677Z,60.10
2023-02-19T10:31:34.727Z,60.10
2023-02-19T10:34:02.441Z,60.10
2023-02-19T10:36:32.120Z,60.10
2023-02-19T10:39:04.938Z,60.10
2023-02-19T10:41:32.057Z,60.10
2023-02-19T10:44:04.888Z,60.10
2023-02-19T10:46:35.988Z,60.00
2023-02-19T10:49:06.344Z,60.00
2023-02-19T10:51:42.420Z,60.00
2023-02-19T10:54:25.608Z,60.00
2023-02-19T10:56:52.624Z,60.00
2023-02-19T10:59:19.462Z,60.00
2023-02-19T11:02:17.560Z,60.00
2023-02-19T11:05:09.461Z,60.00
2023-02-19T11:07:37.624Z,60.00
2023-02-19T11:10:07.165Z,60.00
2023-02-19T11:12:38.249Z,60.00
2023-02-19T11:15:24.235Z,59.70
2023-02-19T11:18:13.325Z,59.70
2023-02-19T11:20:47.653Z,59.70
2023-02-19T11:23:19.521Z,59.70
2023-02-19T11:25:51.154Z,59.70
2023-02-19T11:28:31.531Z,59.40
2023-02-19T11:31:24.789Z,59.30
2023-02-19T11:34:29.974Z,59.10
2023-02-19T11:37:17.879Z,59.30
2023-02-19T11:39:47.449Z,59.40
2023-02-19T11:42:53.701Z,59.40
2023-02-19T11:45:59.172Z,59.40
2023-02-19T11:48:47.600Z,60.20
2023-02-19T11:51:39.837Z,59.90
2023-02-19T11:54:19.196Z,59.80
2023-02-19T11:56:55.184Z,59.70
2023-02-19T11:59:37.701Z,60.30
2023-02-19T12:02:29.237Z,59.70
2023-02-19T12:05:14.854Z,59.70
2023-02-19T12:08:20.331Z,59.70
2023-02-19T12:11:00.436Z,59.70
2023-02-19T12:13:34.955Z,59.80
2023-02-19T12:16:18.167Z,59.50
2023-02-19T12:19:03.934Z,59.70
2023-02-19T12:21:58.751Z,59.70
2023-02-19T12:24:39.185Z,59.60
2023-02-19T12:27:37.526Z,59.70
2023-02-19T12:30:51.832Z,59.70
2023-02-19T12:33:32.879Z,59.60
2023-02-19T12:36:14.150Z,59.60
2023-02-19T12:38:52.114Z,59.70
2023-02-19T12:41:21.303Z,59.70
2023-02-19T12:44:07.291Z,59.60
2023-02-19T12:46:39.978Z,59.60
2023-02-19T12:49:16.646Z,59.70
2023-02-19T12:51:55.348Z,59.70
2023-02-19T12:54:55.678Z,58.50
2023-02-19T12:57:29.881Z,58.00
2023-02-19T13:00:34.574Z,59.00
2023-02-19T13:03:13.517Z,58.90
2023-02-19T13:05:55.078Z,58.30
2023-02-19T13:09:05.877Z,58.20
2023-02-19T13:11:59.375Z,65.40
2023-02-19T13:14:41.811Z,65.20
2023-02-19T13:17:29.820Z,64.10
2023-02-19T13:20:25.311Z,61.90
2023-02-19T13:23:48.805Z,61.00
2023-02-19T13:26:52.251Z,61.70
2023-02-19T13:29:37.756Z,62.90
2023-02-19T13:32:26.735Z,62.90
2023-02-19T13:35:21.866Z,62.90
2023-02-19T13:37:50.334Z,62.70
2023-02-19T13:40:25.768Z,62.60
2023-02-19T13:42:55.247Z,62.70
2023-02-19T13:45:27.613Z,62.60
2023-02-19T13:47:54.416Z,62.70
2023-02-19T13:50:28.357Z,62.70
2023-02-19T13:53:00.285Z,63.00
2023-02-19T13:55:50.887Z,63.00
2023-02-19T13:58:33.135Z,63.00
2023-02-19T14:01:08.497Z,63.00
2023-02-19T14:03:47.113Z,63.00
2023-02-19T14:06:14.576Z,63.10
2023-02-19T14:08:58.689Z,63.00
2023-02-19T14:12:15.434Z,63.00
2023-02-19T14:14:42.769Z,63.00
2023-02-19T14:17:09.534Z,62.90
2023-02-19T14:19:42.126Z,62.90
2023-02-19T14:22:51.431Z,62.70
2023-02-19T14:25:39.167Z,62.50
2023-02-19T14:28:21.773Z,62.70
2023-02-19T14:31:09.609Z,62.60
2023-02-19T14:33:40.336Z,62.70
2023-02-19T14:36:35.579Z,62.90
2023-02-19T14:39:27.729Z,62.90
2023-02-19T14:42:04.888Z,63.00
2023-02-19T14:44:37.286Z,62.90
2023-02-19T14:47:07.352Z,63.00
2023-02-19T14:49:59.696Z,63.10
2023-02-19T14:52:45.851Z,63.40
2023-02-19T14:55:27.751Z,63.60
2023-02-19T14:57:56.851Z,63.70
2023-02-19T15:00:27.084Z,64.00
2023-02-19T15:02:56.764Z,64.10
2023-02-19T15:05:32.929Z,64.40
2023-02-19T15:08:04.226Z,64.10
2023-02-19T15:10:32.560Z,64.10
2023-02-19T15:13:06.219Z,64.00
2023-02-19T15:15:37.500Z,63.90
2023-02-19T15:18:05.500Z,63.80
2023-02-19T15:20:37.666Z,63.70
2023-02-19T15:23:08.401Z,63.50
2023-02-19T15:25:38.518Z,63.60
2023-02-19T15:28:28.844Z,63.70
2023-02-19T15:30:58.504Z,63.80
2023-02-19T15:33:27.500Z,63.80
2023-02-19T15:36:00.577Z,64.00
2023-02-19T15:38:28.069Z,64.10
2023-02-19T15:40:58.795Z,64.20
2023-02-19T15:43:34.489Z,64.40
2023-02-19T15:46:06.610Z,64.40
2023-02-19T15:48:46.025Z,64.50
2023-02-19T15:51:21.454Z,64.70
2023-02-19T15:53:57.517Z,64.80
2023-02-19T15:56:30.590Z,64.90
2023-02-19T15:59:02.965Z,65.00
2023-02-19T16:01:37.823Z,65.20
2023-02-19T16:04:17.495Z,65.50
2023-02-19T16:06:58.054Z,65.50
2023-02-19T16:09:31.104Z,65.60
2023-02-19T16:12:03.190Z,65.70
2023-02-19T16:14:39.320Z,65.80
2023-02-19T16:17:22.113Z,65.80
2023-02-19T16:20:00.793Z,66.50
2023-02-19T16:22:30.836Z,66.00
2023-02-19T16:25:03.153Z,65.70
2023-02-19T16:27:34.103Z,65.80
2023-02-19T16:30:26.118Z,66.00
2023-02-19T16:33:46.519Z,65.80
2023-02-19T16:36:35.806Z,65.90
2023-02-19T16:39:09.657Z,66.10
2023-02-19T16:41:51.801Z,66.10
2023-02-19T16:44:21.791Z,66.20
2023-02-19T16:46:54.867Z,66.30
2023-02-19T16:49:23.951Z,66.40
2023-02-19T16:51:51.470Z,66.50
2023-02-19T16:54:18.439Z,66.50
2023-02-19T16:56:45.336Z,66.80
2023-02-19T16:59:14.052Z,66.70
2023-02-19T17:01:41.559Z,66.70
2023-02-19T17:04:13.660Z,66.50
2023-02-19T17:06:41.217Z,66.40
2023-02-19T17:09:09.381Z,66.50
2023-02-19T17:11:37.027Z,63.40
2023-02-19T17:14:04.143Z,63.40
2023-02-19T17:16:51.293Z,63.50
2023-02-19T17:19:20.026Z,63.40
2023-02-19T17:21:47.645Z,63.20
2023-02-19T17:24:15.137Z,62.90
2023-02-19T17:26:42.193Z,63.00
2023-02-19T17:29:14.215Z,63.00
2023-02-19T17:31:41.706Z,63.00
2023-02-19T17:34:08.804Z,63.00
2023-02-19T17:36:35.817Z,63.00
2023-02-19T17:39:05.044Z,63.00
2023-02-19T17:41:31.939Z,63.00
2023-02-19T17:43:58.947Z,63.00
2023-02-19T17:46:27.243Z,62.90
2023-02-19T17:48:54.926Z,62.90
2023-02-19T17:51:22.329Z,62.90
2023-02-19T17:53:49.453Z,62.80
2023-02-19T17:56:21.767Z,62.70
2023-02-19T17:58:49.201Z,62.60
2023-02-19T18:01:16.299Z,62.60
2023-02-19T18:03:43.434Z,62.70
2023-02-19T18:06:10.541Z,62.80
2023-02-19T18:08:38.720Z,62.80
2023-02-19T18:11:07.711Z,62.80
2023-02-19T18:13:34.624Z,62.70
2023-02-19T18:16:01.620Z,62.70
2023-02-19T18:18:28.499Z,62.60
2023-02-19T18:20:55.334Z,62.50
2023-02-19T18:23:22.186Z,62.70
2023-02-19T18:25:49.263Z,62.50
2023-02-19T18:28:16.954Z,62.50
2023-02-19T18:30:44.088Z,62.70
2023-02-19T18:33:13.392Z,63.00
2023-02-19T18:35:40.433Z,63.40
2023-02-19T18:38:08.918Z,64.00
2023-02-19T18:40:35.914Z,64.40
2023-02-19T18:43:02.756Z,64.40
2023-02-19T18:45:32.220Z,64.40
2023-02-19T18:47:59.072Z,64.80
2023-02-19T18:50:25.955Z,64.50
2023-02-19T18:52:53.889Z,64.80
2023-02-19T18:55:20.894Z,64.70
2023-02-19T18:57:48.523Z,64.70
2023-02-19T19:00:25.614Z,65.00
2023-02-19T19:02:57.606Z,64.80
2023-02-19T19:05:24.567Z,65.00
2023-02-19T19:07:53.341Z,65.50
2023-02-19T19:10:21.434Z,65.90
2023-02-19T19:12:48.722Z,65.60
2023-02-19T19:15:18.577Z,65.30
2023-02-19T19:17:46.247Z,65.40
2023-02-19T19:20:14.648Z,65.20
2023-02-19T19:22:41.549Z,65.70
2023-02-19T19:25:09.065Z,65.50
2023-02-19T19:27:36.258Z,64.90
2023-02-19T19:30:04.825Z,64.90
2023-02-19T19:32:31.894Z,64.90
2023-02-19T19:34:58.885Z,64.90
2023-02-19T19:37:31.336Z,65.20
2023-02-19T19:39:58.334Z,65.40
2023-02-19T19:42:25.169Z,65.60
2023-02-19T19:44:53.337Z,65.80
2023-02-19T19:47:20.247Z,65.80
2023-02-19T19:49:47.680Z,65.40
2023-02-19T19:52:15.711Z,65.80
2023-02-19T19:54:43.522Z,65.90
2023-02-19T19:57:11.016Z,65.60
2023-02-19T19:59:39.440Z,65.40
2023-02-19T20:02:07.756Z,65.70
2023-02-19T20:04:34.834Z,65.40
2023-02-19T20:07:01.926Z,65.40
2023-02-19T20:09:29.376Z,65.50
2023-02-19T20:11:57.203Z,65.50
2023-02-19T20:14:26.832Z,65.60
2023-02-19T20:16:55.420Z,65.40
2023-02-19T20:19:22.494Z,65.50
2023-02-19T20:21:51.774Z,65.50
2023-02-19T20:24:24.117Z,65.70
2023-02-19T20:26:53.806Z,65.60
2023-02-19T20:29:20.835Z,64.60
2023-02-19T20:31:49.671Z,64.60
2023-02-19T20:34:19.047Z,64.80
2023-02-19T20:36:48.053Z,64.90
2023-02-19T20:39:17.356Z,65.20
2023-02-19T20:41:50.012Z,65.50
2023-02-19T20:44:18.105Z,65.40
2023-02-19T20:46:47.210Z,65.50
2023-02-19T20:49:15.440Z,65.50
2023-02-19T20:51:58.093Z,65.50
2023-02-19T20:54:27.662Z,65.50
2023-02-19T20:56:57.645Z,66.50
2023-02-19T20:59:30.782Z,65.60
2023-02-19T21:01:58.963Z,66.00
2023-02-19T21:04:27.657Z,65.90
2023-02-19T21:06:54.598Z,65.80
2023-02-19T21:09:22.908Z,65.80
2023-02-19T21:11:50.536Z,65.90
2023-02-19T21:14:19.134Z,65.80
2023-02-19T21:16:46.032Z,66.00
2023-02-19T21:19:13.224Z,65.80
2023-02-19T21:21:40.488Z,65.80
2023-02-19T21:24:09.347Z,65.80
2023-02-19T21:26:38.773Z,65.80
2023-02-19T21:29:07.234Z,66.00
2023-02-19T21:31:43.092Z,64.80
2023-02-19T21:34:12.659Z,63.90
2023-02-19T21:36:39.994Z,63.70
2023-02-19T21:39:08.437Z,64.20
2023-02-19T21:41:35.593Z,64.60
2023-02-19T21:44:02.718Z,65.20
2023-02-19T21:46:29.645Z,65.70
2023-02-19T21:48:57.005Z,66.20
2023-02-19T21:51:30.613Z,66.60
2023-02-19T21:53:57.925Z,67.00
2023-02-19T21:56:26.766Z,67.40
2023-02-19T21:58:53.786Z,67.60
2023-02-19T22:01:29.174Z,68.00
2023-02-19T22:03:56.142Z,68.40
2023-02-19T22:06:29.241Z,68.70
2023-02-19T22:08:57.226Z,68.60
2023-02-19T22:11:24.640Z,68.50
2023-02-19T22:13:51.732Z,68.50
2023-02-19T22:16:19.172Z,68.80
2023-02-19T22:18:54.372Z,68.70
2023-02-19T22:21:22.532Z,68.80
2023-02-19T22:23:51.879Z,68.80
2023-02-19T22:26:32.624Z,69.00
2023-02-19T22:29:00.039Z,69.00
2023-02-19T22:31:28.013Z,69.10
2023-02-19T22:33:57.220Z,69.20
2023-02-19T22:36:31.241Z,68.40
2023-02-19T22:38:58.200Z,67.40
2023-02-19T22:41:25.048Z,67.60
2023-02-19T22:43:55.128Z,67.90
2023-02-19T22:46:24.243Z,68.30
2023-02-19T22:48:51.063Z,68.90
2023-02-19T22:51:23.337Z,69.50
2023-02-19T22:53:53.289Z,70.30
2023-02-19T22:56:22.326Z,70.90
2023-02-19T22:58:49.557Z,70.90
2023-02-19T23:01:16.824Z,71.20
2023-02-19T23:03:55.488Z,71.40
2023-02-19T23:06:25.633Z,72.00
2023-02-19T23:08:53.853Z,72.40
2023-02-19T23:11:24.563Z,72.50
2023-02-19T23:13:51.542Z,72.70
2023-02-19T23:16:18.540Z,72.70
2023-02-19T23:18:45.860Z,72.80
2023-02-19T23:21:13.438Z,73.10
2023-02-19T23:23:44.535Z,73.30
2023-02-19T23:26:12.867Z,73.40
2023-02-19T23:28:41.039Z,73.40
2023-02-19T23:31:08.047Z,73.10
2023-02-19T23:33:35.333Z,72.70
2023-02-19T23:36:02.456Z,72.90
2023-02-19T23:38:29.277Z,72.70
2023-02-19T23:40:56.113Z,72.40
2023-02-19T23:43:23.037Z,72.60
2023-02-19T23:45:49.906Z,72.40
2023-02-19T23:48:17.260Z,72.60
2023-02-19T23:50:44.134Z,72.50
2023-02-19T23:53:11.095Z,72.50
2023-02-19T23:55:37.888Z,72.60
2023-02-19T23:58:04.709Z,72.70
